Time;durP1;ratioP1;P1;durP2;ratioP2;P2;SDS_P1;SDS_P2;PMS_P1;PMS_P2;Temp;Humidity;BMP_temperature;BMP_pressure;BME280_temperature;BME280_humidity;BME280_pressure;Samples;Min_cycle;Max_cycle;Signal;HPM_P1;HPM_P2
2021/10/17 00:00:17;;;;;;;4.78;4.30;;;;;;;;;;4990535;28;20719;-45
2021/10/17 00:02:43;;;;;;;7.07;5.82;;;;;;;;;;4991129;28;20091;-44
2021/10/17 00:05:09;;;;;;;7.97;4.70;;;;;;;;;;4992092;28;20497;-44
2021/10/17 00:07:35;;;;;;;7.88;4.57;;;;;;;;;;4994853;28;20097;-51
2021/10/17 00:10:00;;;;;;;9.60;5.85;;;;;;;;;;4988811;28;20023;-46
2021/10/17 00:12:25;;;;;;;5.28;3.72;;;;;;;;;;4992396;28;20109;-46
2021/10/17 00:14:51;;;;;;;11.25;5.53;;;;;;;;;;4990041;28;20026;-47
2021/10/17 00:17:16;;;;;;;6.50;4.88;;;;;;;;;;4991467;28;20031;-43
2021/10/17 00:19:41;;;;;;;10.35;5.57;;;;;;;;;;4992148;28;20595;-45
2021/10/17 00:22:07;;;;;;;6.80;3.90;;;;;;;;;;4990825;28;20031;-48
2021/10/17 00:24:32;;;;;;;4.07;3.20;;;;;;;;;;4989621;28;20019;-45
2021/10/17 00:26:57;;;;;;;5.65;4.18;;;;;;;;;;4990881;28;20079;-44
2021/10/17 00:29:22;;;;;;;9.80;4.93;;;;;;;;;;4989382;28;20022;-48
2021/10/17 00:31:48;;;;;;;8.63;3.60;;;;;;;;;;4991589;28;20522;-44
2021/10/17 00:34:14;;;;;;;19.30;4.63;;;;;;;;;;4989958;28;20015;-46
2021/10/17 00:36:39;;;;;;;8.13;4.20;;;;;;;;;;4990292;28;20611;-45
2021/10/17 00:39:05;;;;;;;7.35;4.63;;;;;;;;;;4993012;28;20033;-42
2021/10/17 00:41:31;;;;;;;6.00;4.60;;;;;;;;;;4987771;28;20530;-42
2021/10/17 00:43:57;;;;;;;7.40;4.47;;;;;;;;;;4991069;28;20028;-47
2021/10/17 00:46:22;;;;;;;11.43;5.00;;;;;;;;;;4993784;28;20082;-45
2021/10/17 00:48:48;;;;;;;9.85;4.63;;;;;;;;;;4992528;28;20555;-43
2021/10/17 00:51:14;;;;;;;4.50;3.60;;;;;;;;;;4990808;28;20475;-43
2021/10/17 00:53:39;;;;;;;8.25;3.63;;;;;;;;;;4988925;28;20023;-42
2021/10/17 00:56:05;;;;;;;4.68;3.60;;;;;;;;;;4993387;28;20037;-45
2021/10/17 00:58:30;;;;;;;6.45;3.88;;;;;;;;;;4990674;28;20169;-46
2021/10/17 01:00:56;;;;;;;6.60;4.47;;;;;;;;;;4991197;28;20060;-44
2021/10/17 01:03:21;;;;;;;5.28;3.10;;;;;;;;;;4990532;28;20515;-47
2021/10/17 01:05:47;;;;;;;5.82;3.53;;;;;;;;;;4986206;28;20505;-44
2021/10/17 01:08:12;;;;;;;4.22;3.53;;;;;;;;;;4993571;28;20083;-45
2021/10/17 01:10:38;;;;;;;4.93;3.85;;;;;;;;;;4986827;28;20019;-47
2021/10/17 01:13:03;;;;;;;7.05;4.70;;;;;;;;;;4992401;28;20411;-43
2021/10/17 01:15:28;;;;;;;7.28;2.95;;;;;;;;;;4991605;28;20096;-44
2021/10/17 01:17:53;;;;;;;4.90;3.78;;;;;;;;;;4990542;28;20466;-46
2021/10/17 01:20:19;;;;;;;4.97;4.07;;;;;;;;;;4991300;28;20109;-44
2021/10/17 01:22:44;;;;;;;11.65;4.20;;;;;;;;;;4990394;28;20071;-44
2021/10/17 01:25:10;;;;;;;4.88;3.92;;;;;;;;;;4989467;28;20604;-46
2021/10/17 01:27:36;;;;;;;6.40;4.20;;;;;;;;;;4990260;28;20117;-46
2021/10/17 01:30:02;;;;;;;9.35;6.15;;;;;;;;;;4987860;28;20096;-48
2021/10/17 01:32:27;;;;;;;4.88;4.13;;;;;;;;;;4990419;28;20018;-49
2021/10/17 01:34:53;;;;;;;4.78;3.88;;;;;;;;;;4987094;28;20050;-49
2021/10/17 01:37:18;;;;;;;7.93;4.18;;;;;;;;;;4993239;28;20034;-43
2021/10/17 01:39:43;;;;;;;8.35;4.47;;;;;;;;;;4990277;28;20025;-47
2021/10/17 01:42:08;;;;;;;6.80;3.67;;;;;;;;;;4986414;28;20103;-48
2021/10/17 01:44:34;;;;;;;6.55;3.75;;;;;;;;;;4985478;28;20602;-49
2021/10/17 01:47:00;;;;;;;13.88;4.97;;;;;;;;;;4993792;28;20688;-47
2021/10/17 01:49:26;;;;;;;4.47;3.70;;;;;;;;;;4992387;28;20647;-50
2021/10/17 01:51:51;;;;;;;8.80;4.72;;;;;;;;;;4989796;28;20117;-46
2021/10/17 01:54:16;;;;;;;8.50;6.03;;;;;;;;;;4987398;28;20026;-46
2021/10/17 01:56:42;;;;;;;9.02;5.07;;;;;;;;;;4989388;28;20488;-49
2021/10/17 01:59:07;;;;;;;8.18;6.15;;;;;;;;;;4986266;28;20059;-47
2021/10/17 02:01:32;;;;;;;6.15;4.72;;;;;;;;;;4988494;28;20052;-46
2021/10/17 02:04:02;;;;;;;6.25;4.88;;;;;;;;;;4986649;28;20359;-47
2021/10/17 02:06:28;;;;;;;4.07;2.58;;;;;;;;;;4989378;28;20026;-46
2021/10/17 02:08:53;;;;;;;4.28;3.88;;;;;;;;;;4993470;28;20026;-44
2021/10/17 02:11:18;;;;;;;9.07;4.40;;;;;;;;;;4989691;28;20037;-49
2021/10/17 02:13:44;;;;;;;9.23;3.33;;;;;;;;;;4990514;28;20014;-46
2021/10/17 02:16:10;;;;;;;9.73;3.53;;;;;;;;;;4986862;28;20079;-46
2021/10/17 02:18:35;;;;;;;7.07;4.50;;;;;;;;;;4987279;28;20091;-44
2021/10/17 02:21:01;;;;;;;5.90;4.35;;;;;;;;;;4987664;28;20033;-49
2021/10/17 02:23:27;;;;;;;5.82;4.45;;;;;;;;;;4991353;28;20018;-50
2021/10/17 02:25:52;;;;;;;5.63;3.67;;;;;;;;;;4987231;28;20052;-47
2021/10/17 02:28:17;;;;;;;14.70;6.13;;;;;;;;;;4989842;28;20073;-44
2021/10/17 02:30:42;;;;;;;6.60;4.00;;;;;;;;;;4987718;28;20652;-43
2021/10/17 02:33:08;;;;;;;5.07;2.58;;;;;;;;;;4991512;28;20139;-43
2021/10/17 02:35:33;;;;;;;6.18;3.78;;;;;;;;;;4992307;28;20015;-45
2021/10/17 02:37:59;;;;;;;3.17;2.88;;;;;;;;;;4991729;28;20026;-44
2021/10/17 02:40:24;;;;;;;4.22;2.53;;;;;;;;;;4986545;28;20022;-44
2021/10/17 02:42:49;;;;;;;4.97;2.97;;;;;;;;;;4987843;28;20070;-43
2021/10/17 02:45:15;;;;;;;4.22;3.30;;;;;;;;;;4987055;28;20046;-48
2021/10/17 02:47:40;;;;;;;5.95;3.42;;;;;;;;;;4989531;28;20042;-47
2021/10/17 02:50:07;;;;;;;3.80;2.95;;;;;;;;;;4988440;28;20064;-46
2021/10/17 02:52:32;;;;;;;9.50;4.38;;;;;;;;;;4990709;28;20019;-47
2021/10/17 02:54:57;;;;;;;4.68;3.10;;;;;;;;;;4987486;28;20015;-43
2021/10/17 02:57:23;;;;;;;5.30;3.47;;;;;;;;;;4990411;28;20121;-46
2021/10/17 02:59:48;;;;;;;4.45;3.47;;;;;;;;;;4989506;28;20068;-44
2021/10/17 03:02:14;;;;;;;4.80;3.28;;;;;;;;;;4985856;28;20026;-45
2021/10/17 03:04:39;;;;;;;4.82;3.15;;;;;;;;;;4988668;28;20050;-48
2021/10/17 03:07:04;;;;;;;5.45;3.42;;;;;;;;;;4985146;28;20076;-44
2021/10/17 03:09:30;;;;;;;5.78;4.68;;;;;;;;;;4991480;28;20031;-46
2021/10/17 03:11:55;;;;;;;4.10;3.17;;;;;;;;;;4987956;28;20483;-48
2021/10/17 03:14:20;;;;;;;3.63;3.22;;;;;;;;;;4994627;28;20037;-47
2021/10/17 03:16:46;;;;;;;5.45;4.05;;;;;;;;;;4992886;28;20034;-46
2021/10/17 03:19:14;;;;;;;5.15;4.63;;;;;;;;;;4991367;28;20191;-45
2021/10/17 03:21:40;;;;;;;4.68;3.70;;;;;;;;;;4991443;28;20026;-46
2021/10/17 03:24:06;;;;;;;7.13;5.05;;;;;;;;;;4992414;28;20029;-44
2021/10/17 03:26:31;;;;;;;12.57;4.10;;;;;;;;;;4993535;28;20033;-44
2021/10/17 03:28:57;;;;;;;10.07;4.65;;;;;;;;;;4990919;28;20100;-44
2021/10/17 03:31:22;;;;;;;11.20;2.95;;;;;;;;;;4991148;28;20033;-49
2021/10/17 03:33:47;;;;;;;3.83;2.40;;;;;;;;;;4994037;28;20452;-44
2021/10/17 03:36:13;;;;;;;4.43;3.20;;;;;;;;;;4989929;28;20133;-47
2021/10/17 03:38:38;;;;;;;5.85;3.17;;;;;;;;;;4990722;28;20029;-44
2021/10/17 03:41:04;;;;;;;4.70;3.17;;;;;;;;;;4991203;28;20014;-48
2021/10/17 03:43:30;;;;;;;4.90;3.75;;;;;;;;;;4992565;28;20022;-51
2021/10/17 03:45:55;;;;;;;5.47;3.50;;;;;;;;;;4990201;28;20065;-46
2021/10/17 03:48:20;;;;;;;12.32;3.90;;;;;;;;;;4993261;28;20022;-49
2021/10/17 03:50:46;;;;;;;9.00;4.13;;;;;;;;;;4984977;28;20196;-44
2021/10/17 03:53:11;;;;;;;3.88;3.10;;;;;;;;;;4997006;28;20504;-43
2021/10/17 03:55:37;;;;;;;7.38;3.45;;;;;;;;;;4992313;28;20034;-50
2021/10/17 03:58:03;;;;;;;4.45;3.50;;;;;;;;;;4990745;28;20018;-46
2021/10/17 04:00:28;;;;;;;13.35;4.53;;;;;;;;;;4988049;28;20007;-45
2021/10/17 04:02:54;;;;;;;6.90;5.72;;;;;;;;;;4993731;28;20070;-49
2021/10/17 04:05:19;;;;;;;9.60;5.13;;;;;;;;;;4991707;28;20026;-45
2021/10/17 04:07:45;;;;;;;13.45;3.33;;;;;;;;;;4994914;28;20011;-46
2021/10/17 04:10:10;;;;;;;5.55;3.35;;;;;;;;;;4993978;28;20034;-46
2021/10/17 04:12:36;;;;;;;3.63;2.97;;;;;;;;;;4992743;28;20435;-44
2021/10/17 04:15:01;;;;;;;5.38;3.47;;;;;;;;;;4984210;28;20042;-47
2021/10/17 04:17:26;;;;;;;2.92;2.25;;;;;;;;;;4995215;28;20115;-48
2021/10/17 04:19:52;;;;;;;7.70;4.22;;;;;;;;;;4991260;28;20177;-45
2021/10/17 04:22:17;;;;;;;4.75;3.15;;;;;;;;;;4991132;28;20030;-42
2021/10/17 04:24:43;;;;;;;8.48;3.42;;;;;;;;;;4987401;28;20752;-47
2021/10/17 04:27:09;;;;;;;4.15;2.38;;;;;;;;;;4987379;28;20457;-45
2021/10/17 04:29:38;;;;;;;5.07;3.35;;;;;;;;;;4989507;28;20045;-48
2021/10/17 04:32:03;;;;;;;4.00;2.28;;;;;;;;;;4988198;28;20103;-48
2021/10/17 04:34:29;;;;;;;2.75;2.55;;;;;;;;;;4992388;28;20677;-48
2021/10/17 04:36:54;;;;;;;4.18;3.08;;;;;;;;;;4993944;28;20029;-45
2021/10/17 04:39:20;;;;;;;4.80;3.63;;;;;;;;;;4989708;28;20026;-48
2021/10/17 04:41:45;;;;;;;10.70;3.67;;;;;;;;;;4992888;28;20508;-48
2021/10/17 04:44:11;;;;;;;4.22;3.60;;;;;;;;;;4994771;28;20042;-47
2021/10/17 04:46:36;;;;;;;6.68;3.33;;;;;;;;;;4993586;28;20057;-47
2021/10/17 04:49:01;;;;;;;3.42;2.53;;;;;;;;;;4995082;28;20083;-43
2021/10/17 04:51:27;;;;;;;4.97;3.45;;;;;;;;;;4990065;28;20479;-48
2021/10/17 04:53:52;;;;;;;4.78;3.08;;;;;;;;;;4987429;28;20815;-45
2021/10/17 04:56:17;;;;;;;4.25;2.88;;;;;;;;;;4994266;28;20437;-44
2021/10/17 04:58:43;;;;;;;6.28;3.40;;;;;;;;;;4989395;28;20033;-50
2021/10/17 05:01:08;;;;;;;6.82;3.65;;;;;;;;;;4991262;28;20050;-47
2021/10/17 05:03:34;;;;;;;3.17;2.67;;;;;;;;;;4991043;28;20029;-46
2021/10/17 05:05:59;;;;;;;4.22;3.65;;;;;;;;;;4989537;28;20023;-46
2021/10/17 05:08:24;;;;;;;6.22;2.75;;;;;;;;;;4990939;28;20030;-49
2021/10/17 05:10:50;;;;;;;4.30;3.80;;;;;;;;;;4990246;28;20590;-43
2021/10/17 05:13:15;;;;;;;4.47;4.07;;;;;;;;;;4987581;28;20023;-48
2021/10/17 05:15:40;;;;;;;5.70;4.50;;;;;;;;;;4997172;28;20360;-43
2021/10/17 05:18:05;;;;;;;4.88;3.58;;;;;;;;;;4992562;28;20057;-47
2021/10/17 05:20:31;;;;;;;7.07;5.25;;;;;;;;;;4990922;28;20369;-44
2021/10/17 05:22:56;;;;;;;8.88;7.40;;;;;;;;;;4986226;28;20669;-50
2021/10/17 05:25:21;;;;;;;4.88;4.28;;;;;;;;;;4985090;28;20550;-49
2021/10/17 05:27:47;;;;;;;8.88;5.88;;;;;;;;;;4988552;28;20033;-48
2021/10/17 05:30:12;;;;;;;11.48;5.72;;;;;;;;;;4985589;28;20048;-52
2021/10/17 05:32:37;;;;;;;7.32;5.50;;;;;;;;;;4981097;28;20027;-51
2021/10/17 05:35:03;;;;;;;8.70;5.95;;;;;;;;;;4986288;28;20022;-51
2021/10/17 05:37:28;;;;;;;6.85;5.20;;;;;;;;;;4988132;28;20022;-45
2021/10/17 05:39:53;;;;;;;5.28;4.78;;;;;;;;;;4994091;28;20099;-49
2021/10/17 05:42:19;;;;;;;10.43;4.32;;;;;;;;;;4988906;28;20022;-46
2021/10/17 05:44:44;;;;;;;4.32;3.03;;;;;;;;;;4987432;28;20452;-46
2021/10/17 05:47:09;;;;;;;3.88;3.08;;;;;;;;;;4989188;28;20046;-42
2021/10/17 05:49:35;;;;;;;15.00;3.40;;;;;;;;;;4989121;28;20022;-46
2021/10/17 05:52:00;;;;;;;5.32;3.80;;;;;;;;;;4985531;28;20526;-46
2021/10/17 05:54:25;;;;;;;7.70;4.07;;;;;;;;;;4992849;28;20053;-44
2021/10/17 05:56:50;;;;;;;4.85;4.32;;;;;;;;;;4981828;28;20553;-45
2021/10/17 05:59:17;;;;;;;5.00;4.20;;;;;;;;;;4992977;28;20022;-45
2021/10/17 06:01:43;;;;;;;5.07;4.38;;;;;;;;;;4986015;28;20531;-47
2021/10/17 06:04:08;;;;;;;9.85;3.05;;;;;;;;;;4981371;28;20057;-47
2021/10/17 06:06:35;;;;;;;7.18;3.95;;;;;;;;;;4992047;28;20410;-48
2021/10/17 06:09:01;;;;;;;4.15;3.45;;;;;;;;;;4989201;28;20031;-47
2021/10/17 06:11:26;;;;;;;4.43;4.03;;;;;;;;;;4990244;28;20049;-45
2021/10/17 06:13:51;;;;;;;6.50;3.97;;;;;;;;;;4987326;28;20088;-45
2021/10/17 06:16:17;;;;;;;15.60;4.28;;;;;;;;;;4985663;28;20033;-49
2021/10/17 06:18:42;;;;;;;7.70;7.00;;;;;;;;;;4981700;28;20515;-43
2021/10/17 06:21:07;;;;;;;20.45;16.17;;;;;;;;;;4987033;28;20030;-44
2021/10/17 06:23:33;;;;;;;14.88;13.60;;;;;;;;;;4995416;28;20438;-43
2021/10/17 06:25:59;;;;;;;16.90;13.98;;;;;;;;;;4986170;28;20371;-42
2021/10/17 06:28:24;;;;;;;14.52;12.00;;;;;;;;;;4987384;28;20030;-42
2021/10/17 06:30:50;;;;;;;12.98;11.63;;;;;;;;;;4985426;28;20518;-43
2021/10/17 06:33:15;;;;;;;17.30;15.68;;;;;;;;;;4987493;28;20556;-45
2021/10/17 06:35:40;;;;;;;28.80;26.17;;;;;;;;;;4986759;28;20026;-43
2021/10/17 06:38:05;;;;;;;23.75;19.50;;;;;;;;;;4990092;28;20441;-44
2021/10/17 06:40:31;;;;;;;21.55;19.13;;;;;;;;;;4991373;28;20114;-46
2021/10/17 06:42:57;;;;;;;14.93;13.52;;;;;;;;;;4984702;28;20073;-46
2021/10/17 06:45:22;;;;;;;14.20;12.75;;;;;;;;;;4989305;28;20054;-44
2021/10/17 06:47:47;;;;;;;13.80;12.57;;;;;;;;;;4989610;28;20038;-45
2021/10/17 06:50:14;;;;;;;16.88;15.10;;;;;;;;;;4988408;28;20455;-42
2021/10/17 06:52:39;;;;;;;16.45;14.27;;;;;;;;;;4990393;28;20105;-45
2021/10/17 06:55:05;;;;;;;21.73;17.27;;;;;;;;;;4987950;28;20514;-44
2021/10/17 06:57:30;;;;;;;13.43;11.90;;;;;;;;;;4992660;28;20026;-44
2021/10/17 06:59:55;;;;;;;14.82;13.20;;;;;;;;;;4986139;28;20032;-47
2021/10/17 07:02:20;;;;;;;20.10;16.23;;;;;;;;;;4986486;28;20451;-44
2021/10/17 07:04:46;;;;;;;27.45;18.65;;;;;;;;;;4990878;28;20030;-43
2021/10/17 07:07:11;;;;;;;22.35;18.23;;;;;;;;;;4991196;28;20033;-43
2021/10/17 07:09:36;;;;;;;21.45;19.08;;;;;;;;;;4989021;28;20114;-49
2021/10/17 07:12:01;;;;;;;20.83;16.92;;;;;;;;;;4988626;28;20375;-47
2021/10/17 07:14:27;;;;;;;17.17;15.32;;;;;;;;;;4987507;28;20030;-51
2021/10/17 07:16:52;;;;;;;19.10;15.38;;;;;;;;;;4989778;28;20054;-47
2021/10/17 07:19:17;;;;;;;28.48;14.70;;;;;;;;;;4992149;28;20065;-48
2021/10/17 07:21:43;;;;;;;17.52;15.98;;;;;;;;;;4989321;28;20033;-51
2021/10/17 07:24:08;;;;;;;24.52;12.90;;;;;;;;;;4988609;28;20081;-49
2021/10/17 07:26:33;;;;;;;14.73;13.20;;;;;;;;;;4989494;28;20782;-50
2021/10/17 07:28:59;;;;;;;14.20;12.15;;;;;;;;;;4990658;28;20720;-51
2021/10/17 07:31:24;;;;;;;9.82;7.95;;;;;;;;;;4988926;28;20597;-46
2021/10/17 07:33:49;;;;;;;10.65;9.15;;;;;;;;;;4990915;28;20015;-48
2021/10/17 07:36:14;;;;;;;8.77;7.95;;;;;;;;;;4984778;28;20519;-50
2021/10/17 07:38:40;;;;;;;8.27;6.68;;;;;;;;;;4988605;28;20615;-50
2021/10/17 07:41:05;;;;;;;7.35;6.13;;;;;;;;;;4983705;28;20117;-47
2021/10/17 07:43:30;;;;;;;7.82;6.78;;;;;;;;;;4988727;28;20019;-48
2021/10/17 07:45:56;;;;;;;7.80;6.70;;;;;;;;;;4988269;28;20050;-50
2021/10/17 07:48:21;;;;;;;12.05;8.95;;;;;;;;;;4987564;28;20082;-48
2021/10/17 07:50:46;;;;;;;14.13;10.20;;;;;;;;;;4992218;28;20068;-49
2021/10/17 07:53:11;;;;;;;11.68;8.32;;;;;;;;;;4993491;28;20142;-51
2021/10/17 07:55:37;;;;;;;8.80;7.95;;;;;;;;;;4990804;28;20033;-43
2021/10/17 07:58:03;;;;;;;9.45;7.25;;;;;;;;;;4989334;28;20096;-48
2021/10/17 08:00:30;;;;;;;8.35;7.40;;;;;;;;;;4990444;28;20038;-50
2021/10/17 08:02:56;;;;;;;14.95;10.52;;;;;;;;;;4989344;28;20225;-51
2021/10/17 08:05:21;;;;;;;10.57;8.85;;;;;;;;;;4993105;28;20546;-50
2021/10/17 08:07:47;;;;;;;9.10;7.80;;;;;;;;;;4991229;28;20042;-51
2021/10/17 08:10:13;;;;;;;7.65;5.55;;;;;;;;;;4989769;28;20181;-50
2021/10/17 08:12:38;;;;;;;10.35;8.30;;;;;;;;;;4990904;28;20029;-49
2021/10/17 08:15:05;;;;;;;12.57;4.90;;;;;;;;;;4992133;28;20027;-48
2021/10/17 08:17:30;;;;;;;6.38;5.10;;;;;;;;;;4991385;28;20046;-45
2021/10/17 08:19:55;;;;;;;6.28;4.45;;;;;;;;;;4992375;28;20084;-47
2021/10/17 08:22:21;;;;;;;5.35;4.78;;;;;;;;;;4992042;28;20018;-46
2021/10/17 08:24:47;;;;;;;6.18;4.53;;;;;;;;;;4991639;28;20018;-45
2021/10/17 08:27:12;;;;;;;11.10;4.38;;;;;;;;;;4988526;28;20041;-50
2021/10/17 08:29:37;;;;;;;6.43;4.22;;;;;;;;;;4991504;28;21085;-49
2021/10/17 08:32:03;;;;;;;19.23;5.38;;;;;;;;;;4987635;28;20367;-49
2021/10/17 08:34:28;;;;;;;5.75;3.95;;;;;;;;;;4989716;28;20018;-51
2021/10/17 08:36:53;;;;;;;3.70;2.88;;;;;;;;;;4994855;28;20033;-48
2021/10/17 08:39:18;;;;;;;11.32;4.47;;;;;;;;;;4992511;28;20025;-47
2021/10/17 08:41:44;;;;;;;6.53;4.70;;;;;;;;;;4992254;28;20026;-48
2021/10/17 08:44:11;;;;;;;5.60;4.05;;;;;;;;;;4992821;28;20490;-49
2021/10/17 08:46:37;;;;;;;13.45;5.57;;;;;;;;;;4986877;28;20072;-49
2021/10/17 08:49:02;;;;;;;11.50;6.82;;;;;;;;;;4995864;28;20034;-50
2021/10/17 08:51:27;;;;;;;7.93;7.10;;;;;;;;;;4992853;28;20114;-51
2021/10/17 08:53:53;;;;;;;6.97;5.60;;;;;;;;;;4990516;28;20019;-48
2021/10/17 08:56:19;;;;;;;9.80;7.05;;;;;;;;;;4985875;28;20109;-48
2021/10/17 08:58:44;;;;;;;8.15;6.93;;;;;;;;;;4990790;28;20421;-51
2021/10/17 09:01:13;;;;;;;5.53;4.95;;;;;;;;;;4986345;28;20029;-47
2021/10/17 09:03:39;;;;;;;9.57;5.43;;;;;;;;;;4989360;28;20050;-48
2021/10/17 09:06:15;;;;;;;7.70;5.32;;;;;;;;;;4993583;28;20053;-49
2021/10/17 09:08:40;;;;;;;8.05;6.32;;;;;;;;;;4991816;28;20071;-47
2021/10/17 09:11:05;;;;;;;5.32;3.00;;;;;;;;;;4989386;28;20314;-51
2021/10/17 09:13:31;;;;;;;7.43;5.65;;;;;;;;;;4986237;28;20687;-50
2021/10/17 09:15:56;;;;;;;11.02;7.35;;;;;;;;;;4987335;28;20035;-48
2021/10/17 09:18:22;;;;;;;7.95;5.65;;;;;;;;;;4991663;28;20126;-44
2021/10/17 09:20:47;;;;;;;7.63;3.42;;;;;;;;;;4992173;28;20014;-47
2021/10/17 09:23:13;;;;;;;9.35;3.72;;;;;;;;;;4984087;28;20049;-47
2021/10/17 09:25:39;;;;;;;22.73;13.00;;;;;;;;;;4992303;28;20030;-51
2021/10/17 09:28:14;;;;;;;21.10;15.48;;;;;;;;;;4989390;28;20019;-45
2021/10/17 09:30:40;;;;;;;37.17;22.08;;;;;;;;;;4991009;28;20021;-47
2021/10/17 09:33:15;;;;;;;25.27;14.02;;;;;;;;;;4989572;28;20022;-44
2021/10/17 09:35:41;;;;;;;20.88;15.40;;;;;;;;;;4988417;28;20018;-51
2021/10/17 09:38:07;;;;;;;8.85;7.85;;;;;;;;;;4989587;28;20087;-47
2021/10/17 09:40:34;;;;;;;6.53;4.00;;;;;;;;;;4986108;28;20513;-45
2021/10/17 09:43:11;;;;;;;11.23;4.18;;;;;;;;;;4990935;28;20026;-49
2021/10/17 09:45:37;;;;;;;7.15;3.67;;;;;;;;;;4987133;28;20054;-47
2021/10/17 09:48:03;;;;;;;4.55;3.03;;;;;;;;;;4990572;28;20513;-51
2021/10/17 09:50:28;;;;;;;4.95;4.45;;;;;;;;;;4994183;28;20078;-48
2021/10/17 09:52:53;;;;;;;6.22;3.08;;;;;;;;;;4984606;28;20048;-51
2021/10/17 09:55:19;;;;;;;8.55;5.30;;;;;;;;;;4987522;28;20478;-49
2021/10/17 09:57:44;;;;;;;10.60;4.18;;;;;;;;;;4989804;28;20052;-46
2021/10/17 10:00:10;;;;;;;5.03;3.20;;;;;;;;;;4992713;28;20033;-45
2021/10/17 10:02:36;;;;;;;4.72;3.15;;;;;;;;;;4987203;28;20492;-45
2021/10/17 10:05:01;;;;;;;4.80;4.07;;;;;;;;;;4986757;28;20023;-48
2021/10/17 10:07:27;;;;;;;2.75;2.33;;;;;;;;;;4988546;28;20144;-45
2021/10/17 10:09:57;;;;;;;5.43;2.95;;;;;;;;;;4988921;28;20030;-46
2021/10/17 10:12:24;;;;;;;5.90;5.30;;;;;;;;;;4984407;28;20139;-45
2021/10/17 10:14:49;;;;;;;3.65;2.70;;;;;;;;;;4986803;28;20237;-45
2021/10/17 10:17:15;;;;;;;4.65;2.58;;;;;;;;;;4980234;28;20475;-51
2021/10/17 10:19:41;;;;;;;4.43;3.00;;;;;;;;;;4986935;28;20038;-48
2021/10/17 10:22:07;;;;;;;3.25;2.58;;;;;;;;;;4989253;28;20483;-48
2021/10/17 10:24:32;;;;;;;7.97;3.97;;;;;;;;;;4990521;28;20039;-49
2021/10/17 10:26:58;;;;;;;4.78;3.38;;;;;;;;;;4984533;28;20079;-50
2021/10/17 10:29:28;;;;;;;3.95;3.45;;;;;;;;;;4987987;28;20019;-49
2021/10/17 10:31:54;;;;;;;2.70;2.37;;;;;;;;;;4984946;28;20027;-51
2021/10/17 10:34:23;;;;;;;6.45;4.10;;;;;;;;;;4986349;28;20425;-46
2021/10/17 10:36:49;;;;;;;4.53;2.90;;;;;;;;;;4985931;28;20047;-49
2021/10/17 10:39:18;;;;;;;4.93;4.32;;;;;;;;;;4986465;28;20022;-49
2021/10/17 10:41:49;;;;;;;8.98;4.65;;;;;;;;;;4979414;28;20121;-50
2021/10/17 10:44:22;;;;;;;9.15;4.38;;;;;;;;;;4984353;28;20018;-51
2021/10/17 10:46:48;;;;;;;4.30;3.35;;;;;;;;;;4982059;28;20057;-48
2021/10/17 10:49:32;;;;;;;10.45;3.75;;;;;;;;;;4992825;28;20438;-46
2021/10/17 10:51:58;;;;;;;7.90;3.63;;;;;;;;;;4989950;28;20026;-49
2021/10/17 10:54:23;;;;;;;6.43;3.78;;;;;;;;;;4988844;28;20133;-50
2021/10/17 10:56:52;;;;;;;4.15;2.92;;;;;;;;;;4988608;28;20053;-50
2021/10/17 10:59:21;;;;;;;4.70;3.83;;;;;;;;;;4988863;28;20026;-51
2021/10/17 11:01:50;;;;;;;6.00;3.60;;;;;;;;;;4987083;28;20037;-49
2021/10/17 11:04:34;;;;;;;5.95;3.35;;;;;;;;;;4990788;28;20475;-50
2021/10/17 11:07:18;;;;;;;6.93;3.63;;;;;;;;;;4989278;28;20018;-50
2021/10/17 11:09:44;;;;;;;5.50;3.15;;;;;;;;;;4987843;28;20030;-51
2021/10/17 11:12:09;;;;;;;2.00;1.80;;;;;;;;;;4983628;28;20018;-50
2021/10/17 11:14:35;;;;;;;6.32;3.45;;;;;;;;;;4986232;28;20100;-49
2021/10/17 11:17:05;;;;;;;4.35;3.33;;;;;;;;;;4985397;28;20109;-50
2021/10/17 11:19:30;;;;;;;9.25;2.33;;;;;;;;;;4986628;28;20120;-50
2021/10/17 11:22:00;;;;;;;8.48;2.83;;;;;;;;;;4988831;28;20124;-51
2021/10/17 11:24:25;;;;;;;4.40;2.92;;;;;;;;;;4986515;28;20054;-49
2021/10/17 11:27:10;;;;;;;4.93;4.32;;;;;;;;;;4985463;28;20110;-51
2021/10/17 11:29:43;;;;;;;9.68;4.70;;;;;;;;;;4993219;28;20027;-50
2021/10/17 11:32:09;;;;;;;8.20;4.78;;;;;;;;;;4993957;28;20045;-46
2021/10/17 11:34:34;;;;;;;6.60;5.10;;;;;;;;;;4990367;28;20026;-48
2021/10/17 11:37:22;;;;;;;6.20;3.10;;;;;;;;;;4984131;28;20026;-48
2021/10/17 11:40:01;;;;;;;4.28;3.63;;;;;;;;;;4988929;28;20027;-44
2021/10/17 11:42:27;;;;;;;6.20;3.17;;;;;;;;;;4991852;28;20026;-43
2021/10/17 11:44:53;;;;;;;8.18;3.65;;;;;;;;;;4997087;28;20026;-49
2021/10/17 11:47:19;;;;;;;4.18;3.15;;;;;;;;;;4993691;28;20102;-48
2021/10/17 11:49:44;;;;;;;3.05;2.53;;;;;;;;;;4987794;28;20047;-49
2021/10/17 11:52:17;;;;;;;8.23;4.32;;;;;;;;;;4987809;28;20026;-50
2021/10/17 11:54:46;;;;;;;4.43;3.55;;;;;;;;;;4990025;28;20522;-47
2021/10/17 11:57:27;;;;;;;9.65;3.72;;;;;;;;;;4989076;28;20029;-47
2021/10/17 12:00:05;;;;;;;4.13;3.47;;;;;;;;;;4999394;28;20022;-46
2021/10/17 12:02:31;;;;;;;4.10;3.10;;;;;;;;;;4988903;28;20022;-45
2021/10/17 12:04:57;;;;;;;6.60;3.60;;;;;;;;;;4989918;28;20031;-45
2021/10/17 12:07:22;;;;;;;13.20;6.25;;;;;;;;;;4995252;28;20029;-44
2021/10/17 12:09:47;;;;;;;5.75;4.15;;;;;;;;;;4990249;28;20041;-43
2021/10/17 12:12:13;;;;;;;4.80;3.65;;;;;;;;;;4987517;28;20031;-43
2021/10/17 12:14:38;;;;;;;7.40;3.05;;;;;;;;;;4990328;28;20030;-42
2021/10/17 12:17:04;;;;;;;11.45;3.67;;;;;;;;;;4989820;28;20025;-49
2021/10/17 12:19:29;;;;;;;3.83;2.90;;;;;;;;;;4987581;28;20015;-46
2021/10/17 12:21:55;;;;;;;5.63;2.92;;;;;;;;;;4987574;28;20034;-46
2021/10/17 12:24:20;;;;;;;5.63;2.72;;;;;;;;;;4991485;28;20184;-49
2021/10/17 12:26:50;;;;;;;6.43;3.20;;;;;;;;;;4993091;28;20109;-43
2021/10/17 12:29:17;;;;;;;3.47;2.97;;;;;;;;;;4994742;28;20029;-46
2021/10/17 12:31:43;;;;;;;3.47;1.95;;;;;;;;;;4982465;28;20439;-40
2021/10/17 12:34:09;;;;;;;2.65;2.22;;;;;;;;;;4990114;28;20026;-43
2021/10/17 12:36:36;;;;;;;7.82;3.45;;;;;;;;;;4989168;28;20068;-45
2021/10/17 12:39:06;;;;;;;2.20;1.40;;;;;;;;;;4991306;28;20515;-47
2021/10/17 12:41:31;;;;;;;4.07;2.55;;;;;;;;;;4993903;28;20026;-46
2021/10/17 12:44:01;;;;;;;4.43;2.25;;;;;;;;;;4991768;28;20626;-48
2021/10/17 12:46:27;;;;;;;10.10;2.47;;;;;;;;;;4984088;28;20527;-47
2021/10/17 12:48:52;;;;;;;4.22;2.55;;;;;;;;;;4988440;28;20558;-46
2021/10/17 12:51:24;;;;;;;7.88;2.38;;;;;;;;;;4992338;28;20175;-49
2021/10/17 12:54:00;;;;;;;2.75;2.10;;;;;;;;;;4992282;28;20549;-48
2021/10/17 12:56:26;;;;;;;3.22;2.15;;;;;;;;;;4984990;28;20030;-45
2021/10/17 12:59:03;;;;;;;2.08;1.83;;;;;;;;;;4991534;28;20026;-49
2021/10/17 13:01:28;;;;;;;2.90;2.38;;;;;;;;;;4991102;28;20642;-45
2021/10/17 13:04:10;;;;;;;6.43;1.98;;;;;;;;;;4992776;28;20097;-49
2021/10/17 13:06:47;;;;;;;9.43;4.00;;;;;;;;;;4996696;28;20018;-48
2021/10/17 13:09:12;;;;;;;5.63;3.08;;;;;;;;;;4988062;28;20018;-48
2021/10/17 13:11:37;;;;;;;3.85;1.60;;;;;;;;;;4987240;28;20367;-46
2021/10/17 13:14:12;;;;;;;6.93;2.67;;;;;;;;;;4987914;28;20029;-48
2021/10/17 13:16:39;;;;;;;1.77;1.13;;;;;;;;;;4988598;28;20083;-48
2021/10/17 13:19:04;;;;;;;4.53;2.65;;;;;;;;;;4983547;28;20029;-47
2021/10/17 13:21:29;;;;;;;2.40;1.60;;;;;;;;;;4991032;28;20031;-45
2021/10/17 13:23:55;;;;;;;6.70;3.83;;;;;;;;;;4990756;28;20109;-49
2021/10/17 13:26:20;;;;;;;9.52;2.58;;;;;;;;;;4992286;28;20535;-46
2021/10/17 13:28:45;;;;;;;4.35;2.55;;;;;;;;;;4992363;28;20022;-47
2021/10/17 13:31:10;;;;;;;2.85;1.75;;;;;;;;;;4989092;28;20025;-50
2021/10/17 13:33:36;;;;;;;4.18;2.70;;;;;;;;;;4996616;28;20030;-46
2021/10/17 13:36:01;;;;;;;5.47;2.83;;;;;;;;;;4988542;28;20382;-47
2021/10/17 13:38:26;;;;;;;2.65;1.55;;;;;;;;;;4992633;28;20030;-47
2021/10/17 13:40:52;;;;;;;5.28;3.10;;;;;;;;;;4995499;28;20021;-49
2021/10/17 13:43:17;;;;;;;3.13;1.98;;;;;;;;;;4992963;28;20198;-48
2021/10/17 13:45:43;;;;;;;2.25;1.70;;;;;;;;;;4994872;28;20042;-44
2021/10/17 13:48:09;;;;;;;3.90;2.50;;;;;;;;;;4993264;28;20025;-44
2021/10/17 13:50:34;;;;;;;2.33;1.67;;;;;;;;;;4994989;28;20026;-44
2021/10/17 13:53:00;;;;;;;4.30;1.83;;;;;;;;;;4989162;28;20031;-47
2021/10/17 13:55:25;;;;;;;11.27;3.85;;;;;;;;;;4992212;28;20109;-43
2021/10/17 13:57:51;;;;;;;4.50;2.80;;;;;;;;;;4995407;28;20026;-43
2021/10/17 14:00:27;;;;;;;1.92;1.40;;;;;;;;;;4992124;28;20782;-45
2021/10/17 14:02:53;;;;;;;5.00;2.08;;;;;;;;;;4985352;28;20026;-47
2021/10/17 14:05:19;;;;;;;3.03;1.77;;;;;;;;;;4988562;28;20025;-46
2021/10/17 14:07:44;;;;;;;3.35;3.05;;;;;;;;;;4990971;28;20030;-47
2021/10/17 14:10:10;;;;;;;5.30;1.40;;;;;;;;;;4997554;28;20037;-47
2021/10/17 14:12:36;;;;;;;3.30;2.15;;;;;;;;;;4989281;28;20495;-43
2021/10/17 14:15:02;;;;;;;3.22;2.65;;;;;;;;;;4994955;28;20068;-46
2021/10/17 14:17:28;;;;;;;2.83;2.00;;;;;;;;;;4993378;28;20030;-47
2021/10/17 14:19:53;;;;;;;3.10;1.67;;;;;;;;;;4989757;28;20033;-47
2021/10/17 14:22:18;;;;;;;9.60;2.45;;;;;;;;;;4991510;28;20021;-49
2021/10/17 14:24:44;;;;;;;7.35;2.10;;;;;;;;;;4995826;28;20456;-50
2021/10/17 14:27:09;;;;;;;5.90;2.05;;;;;;;;;;4989966;28;20479;-48
2021/10/17 14:29:34;;;;;;;3.40;1.45;;;;;;;;;;4985374;28;20236;-45
2021/10/17 14:31:59;;;;;;;4.53;2.80;;;;;;;;;;4987723;28;20037;-48